Disclaimer

Please do not use the information listed here in-flight or in-navigation, as they are not provided to us by the airports but are provided by volunteers, so they might be outdated.

Search


Regions


Airport information page

No radio frequency information is available.

Airport informations:
Latitude: 53° 35' 05.03" N
Longitude: 014° 54' 07.94" E
Elevation: 154 feet - 47 meters
Operating hours: Remarks
Operating agency: Civil government, landing fees and diplomatic clearance may be required
Timezone: UTC+1(+2DT) - Last Sunday in March to last Sunday in October
Fuel: Jet A1+, Jet A1 with icing inhibitor.

100/130 MIL Spec, low lead, aviation gasoline (BLUE)

Runway information:
13/31 - 8202 x 197 feet< - >2500 x 60 meters

Recent METARs:
EPSC 170700Z 06004KT 020V080 5000 BR NSC M01/M02 Q1040
EPSC 170730Z 07004KT 030V110 6000 NSC M01/M02 Q1041
EPSC 170800Z 07003KT 040V120 7000 NSC M00/M01 Q1040

Airport on the map: